createdAt,value
2022-10-22T00:01:28.405Z,76.39
2022-10-22T00:03:55.943Z,76.65
2022-10-22T00:06:22.192Z,76.80
2022-10-22T00:08:48.501Z,76.88
2022-10-22T00:11:17.474Z,77.54
2022-10-22T00:13:43.827Z,77.41
2022-10-22T00:16:10.301Z,77.37
2022-10-22T00:18:37.133Z,77.38
2022-10-22T00:21:03.822Z,77.11
2022-10-22T00:23:30.077Z,76.96
2022-10-22T00:25:56.691Z,76.93
2022-10-22T00:28:23.331Z,76.83
2022-10-22T00:30:58.561Z,76.50
2022-10-22T00:33:26.090Z,76.71
2022-10-22T00:35:52.552Z,76.72
2022-10-22T00:38:18.802Z,76.51
2022-10-22T00:40:45.851Z,76.53
2022-10-22T00:43:16.503Z,76.50
2022-10-22T00:45:42.857Z,78.37
2022-10-22T00:48:11.845Z,77.86
2022-10-22T00:50:59.842Z,78.04
2022-10-22T00:53:31.188Z,77.69
2022-10-22T00:55:57.692Z,77.41
2022-10-22T00:58:27.542Z,77.36
2022-10-22T01:00:55.282Z,78.64
2022-10-22T01:03:21.546Z,78.23
2022-10-22T01:06:02.866Z,79.46
2022-10-22T01:08:57.542Z,77.96
2022-10-22T01:11:33.800Z,77.49
2022-10-22T01:14:25.532Z,77.35
2022-10-22T01:16:56.985Z,78.03
2022-10-22T01:19:29.267Z,78.56
2022-10-22T01:22:32.223Z,78.33
2022-10-22T01:25:17.608Z,78.53
2022-10-22T01:28:17.328Z,80.00
2022-10-22T01:30:44.928Z,81.51
2022-10-22T01:33:13.943Z,81.30
2022-10-22T01:35:43.244Z,82.57
2022-10-22T01:38:13.390Z,83.38
2022-10-22T01:40:39.984Z,83.43
2022-10-22T01:43:08.231Z,83.60
2022-10-22T01:45:37.697Z,84.67
2022-10-22T01:48:13.004Z,85.34
2022-10-22T01:50:54.797Z,85.72
2022-10-22T01:53:56.564Z,86.22
2022-10-22T01:56:30.506Z,86.36
2022-10-22T01:59:34.220Z,87.71
2022-10-22T02:02:39.078Z,87.74
2022-10-22T02:05:13.268Z,88.94
2022-10-22T02:07:47.445Z,87.88
2022-10-22T02:10:14.175Z,87.91
2022-10-22T02:12:41.193Z,88.49
2022-10-22T02:15:08.398Z,87.89
2022-10-22T02:17:35.855Z,88.67
2022-10-22T02:20:16.661Z,89.82
2022-10-22T02:22:43.680Z,89.80
2022-10-22T02:25:10.718Z,90.09
2022-10-22T02:27:44.796Z,90.25
2022-10-22T02:30:14.303Z,90.73
2022-10-22T02:32:46.987Z,91.73
2022-10-22T02:35:15.506Z,91.67
2022-10-22T02:37:41.980Z,91.75
2022-10-22T02:40:08.811Z,91.78
2022-10-22T02:42:37.223Z,91.75
2022-10-22T02:45:04.155Z,91.98
2022-10-22T02:47:30.370Z,92.61
2022-10-22T02:49:56.891Z,93.28
2022-10-22T02:52:23.148Z,93.78
2022-10-22T02:54:49.380Z,91.89
2022-10-22T02:57:16.078Z,91.70
2022-10-22T02:59:42.364Z,91.56
2022-10-22T03:02:08.575Z,90.35
2022-10-22T03:04:35.290Z,89.65
2022-10-22T03:07:01.518Z,89.32
2022-10-22T03:09:27.849Z,89.76
2022-10-22T03:11:54.392Z,89.30
2022-10-22T03:14:21.222Z,89.33
2022-10-22T03:16:47.449Z,89.65
2022-10-22T03:19:14.159Z,89.66
2022-10-22T03:21:53.839Z,90.39
2022-10-22T03:24:29.911Z,91.57
2022-10-22T03:26:56.269Z,91.91
2022-10-22T03:29:24.063Z,91.77
2022-10-22T03:31:50.306Z,91.96
2022-10-22T03:34:16.537Z,92.71
2022-10-22T03:36:43.254Z,92.66
2022-10-22T03:39:10.693Z,92.47
2022-10-22T03:41:36.972Z,92.99
2022-10-22T03:44:04.617Z,92.94
2022-10-22T03:46:30.882Z,92.78
2022-10-22T03:48:57.143Z,92.34
2022-10-22T03:51:23.710Z,92.00
2022-10-22T03:53:49.935Z,91.66
2022-10-22T03:56:16.195Z,91.11
2022-10-22T03:58:42.746Z,91.19
2022-10-22T04:01:11.161Z,91.58
2022-10-22T04:03:38.059Z,91.47
2022-10-22T04:06:09.220Z,91.31
2022-10-22T04:08:35.723Z,91.16
2022-10-22T04:11:02.638Z,90.64
2022-10-22T04:13:28.862Z,91.46
2022-10-22T04:15:55.421Z,91.13
2022-10-22T04:18:23.082Z,91.56
2022-10-22T04:20:51.939Z,91.23
2022-10-22T04:23:18.154Z,91.47
2022-10-22T04:25:44.655Z,90.55
2022-10-22T04:28:10.894Z,90.50
2022-10-22T04:30:37.134Z,90.41
2022-10-22T04:33:03.817Z,90.32
2022-10-22T04:35:30.082Z,90.29
2022-10-22T04:37:56.386Z,90.37
2022-10-22T04:40:22.897Z,90.50
2022-10-22T04:42:49.180Z,90.77
2022-10-22T04:45:15.792Z,91.73
2022-10-22T04:47:42.568Z,91.40
2022-10-22T04:50:09.169Z,91.84
2022-10-22T04:52:35.429Z,91.45
2022-10-22T04:55:01.929Z,91.75
2022-10-22T04:57:31.617Z,91.34
2022-10-22T04:59:57.856Z,91.83
2022-10-22T05:02:24.499Z,92.04
2022-10-22T05:04:50.737Z,91.67
2022-10-22T05:07:16.954Z,91.01
2022-10-22T05:09:43.474Z,90.87
2022-10-22T05:12:09.709Z,91.90
2022-10-22T05:14:35.952Z,91.55
2022-10-22T05:17:02.470Z,91.52
2022-10-22T05:19:31.311Z,92.07
2022-10-22T05:21:59.732Z,92.53
2022-10-22T05:24:26.899Z,92.57
2022-10-22T05:26:54.208Z,92.62
2022-10-22T05:29:20.704Z,93.16
2022-10-22T05:31:47.280Z,93.48
2022-10-22T05:34:13.559Z,92.80
2022-10-22T05:36:40.004Z,93.87
2022-10-22T05:39:07.103Z,93.18
2022-10-22T05:41:35.691Z,92.48
2022-10-22T05:44:03.290Z,91.74
2022-10-22T05:46:32.955Z,91.26
2022-10-22T05:49:01.614Z,90.96
2022-10-22T05:51:30.779Z,90.55
2022-10-22T05:53:59.376Z,90.27
2022-10-22T05:56:26.778Z,89.61
2022-10-22T05:58:53.306Z,89.45
2022-10-22T06:01:25.571Z,89.25
2022-10-22T06:04:04.201Z,88.11
2022-10-22T06:06:35.538Z,87.26
2022-10-22T06:09:07.408Z,86.38
2022-10-22T06:11:35.244Z,86.00
2022-10-22T06:14:02.488Z,85.18
2022-10-22T06:16:30.321Z,84.60
2022-10-22T06:18:58.594Z,84.03
2022-10-22T06:21:25.112Z,83.72
2022-10-22T06:23:51.347Z,83.46
2022-10-22T06:26:17.900Z,82.69
2022-10-22T06:28:44.437Z,82.87
2022-10-22T06:31:10.659Z,82.36
2022-10-22T06:33:42.178Z,81.69
2022-10-22T06:36:16.721Z,81.24
2022-10-22T06:38:43.066Z,80.43
2022-10-22T06:41:11.767Z,79.89
2022-10-22T06:43:38.346Z,79.78
2022-10-22T06:46:07.328Z,79.60
2022-10-22T06:48:35.613Z,79.48
2022-10-22T06:51:03.590Z,79.55
2022-10-22T06:53:30.472Z,78.79
2022-10-22T06:55:57.183Z,78.88
2022-10-22T06:58:23.473Z,78.70
2022-10-22T07:00:49.708Z,78.46
2022-10-22T07:03:16.238Z,78.43
2022-10-22T07:05:42.603Z,77.78
2022-10-22T07:08:08.975Z,77.33
2022-10-22T07:10:35.610Z,76.04
2022-10-22T07:13:01.851Z,75.18
2022-10-22T07:15:28.128Z,73.16
2022-10-22T07:17:54.647Z,71.46
2022-10-22T07:20:21.654Z,69.35
2022-10-22T07:22:48.395Z,68.83
2022-10-22T07:25:15.012Z,67.92
2022-10-22T07:27:41.528Z,68.90
2022-10-22T07:30:08.660Z,68.13
2022-10-22T07:32:35.168Z,66.52
2022-10-22T07:35:01.454Z,66.89
2022-10-22T07:37:27.671Z,66.89
2022-10-22T07:39:54.187Z,66.22
2022-10-22T07:42:20.481Z,65.82
2022-10-22T07:44:46.735Z,65.87
2022-10-22T07:47:13.283Z,65.23
2022-10-22T07:49:39.514Z,63.17
2022-10-22T07:52:07.154Z,62.11
2022-10-22T07:54:33.841Z,61.35
2022-10-22T07:57:00.098Z,59.58
2022-10-22T07:59:26.365Z,57.58
2022-10-22T08:01:52.891Z,53.85
2022-10-22T08:04:19.393Z,52.25
2022-10-22T08:06:47.288Z,54.46
2022-10-22T08:09:14.391Z,52.86
2022-10-22T08:11:40.979Z,52.38
2022-10-22T08:14:07.254Z,51.28
2022-10-22T08:16:33.555Z,53.16
2022-10-22T08:19:00.091Z,52.22
2022-10-22T08:21:26.796Z,50.16
2022-10-22T08:23:53.267Z,48.80
2022-10-22T08:26:19.914Z,47.73
2022-10-22T08:28:46.163Z,45.33
2022-10-22T08:31:12.542Z,46.36
2022-10-22T08:33:39.289Z,45.92
2022-10-22T08:36:06.023Z,45.45
2022-10-22T08:38:32.336Z,44.90
2022-10-22T08:41:07.833Z,42.53
2022-10-22T08:43:54.539Z,42.13
2022-10-22T08:46:38.927Z,41.83
2022-10-22T08:49:10.729Z,42.05
2022-10-22T08:51:40.504Z,41.22
2022-10-22T08:54:19.183Z,42.35
2022-10-22T08:56:56.775Z,42.94
2022-10-22T08:59:32.698Z,42.65
2022-10-22T09:01:59.679Z,42.40
2022-10-22T09:04:32.820Z,42.05
2022-10-22T09:06:59.831Z,43.58
2022-10-22T09:09:35.194Z,44.12
2022-10-22T09:12:03.407Z,42.64
2022-10-22T09:14:29.991Z,41.85
2022-10-22T09:17:09.838Z,40.66
2022-10-22T09:19:54.927Z,40.88
2022-10-22T09:22:40.230Z,38.49
2022-10-22T09:25:24.458Z,37.83
2022-10-22T09:27:52.547Z,37.88
2022-10-22T09:30:21.802Z,38.90
2022-10-22T09:32:55.367Z,38.94
2022-10-22T09:35:24.816Z,38.54
2022-10-22T09:37:55.164Z,38.56
2022-10-22T09:40:22.753Z,39.66
2022-10-22T09:42:49.644Z,41.82
2022-10-22T09:45:20.060Z,43.75
2022-10-22T09:48:02.445Z,44.20
2022-10-22T09:50:31.128Z,44.20
2022-10-22T09:53:05.822Z,43.91
2022-10-22T09:55:32.130Z,44.05
2022-10-22T09:58:00.537Z,44.16
2022-10-22T10:00:28.378Z,44.22
2022-10-22T10:02:57.204Z,44.42
2022-10-22T10:05:27.841Z,45.16
2022-10-22T10:07:54.125Z,46.20
2022-10-22T10:10:51.690Z,47.14
2022-10-22T10:13:47.872Z,47.20
2022-10-22T10:16:23.466Z,46.53
2022-10-22T10:19:04.637Z,45.27
2022-10-22T10:22:05.564Z,46.06
2022-10-22T10:24:49.632Z,46.72
2022-10-22T10:27:34.793Z,46.91
2022-10-22T10:30:11.996Z,47.02
2022-10-22T10:32:55.237Z,46.68
2022-10-22T10:35:33.579Z,46.42
2022-10-22T10:38:12.905Z,46.82
2022-10-22T10:40:50.711Z,47.05
2022-10-22T10:43:28.245Z,47.17
2022-10-22T10:46:00.669Z,48.35
2022-10-22T10:48:37.133Z,49.37
2022-10-22T10:51:14.469Z,51.08
2022-10-22T10:53:47.884Z,51.29
2022-10-22T10:56:38.975Z,53.18
2022-10-22T10:59:29.106Z,54.91
2022-10-22T11:02:32.872Z,55.25
2022-10-22T11:05:13.447Z,56.25
2022-10-22T11:07:49.891Z,56.17
2022-10-22T11:10:27.939Z,57.14
2022-10-22T11:12:58.893Z,56.25
2022-10-22T11:15:30.012Z,57.59
2022-10-22T11:18:14.191Z,57.84
2022-10-22T11:21:01.533Z,58.54
2022-10-22T11:23:52.787Z,59.56
2022-10-22T11:26:44.179Z,60.71
2022-10-22T11:29:18.331Z,61.20
2022-10-22T11:31:45.507Z,62.13
2022-10-22T11:34:33.338Z,62.29
2022-10-22T11:37:01.524Z,62.79
2022-10-22T11:39:35.483Z,65.69
2022-10-22T11:42:04.859Z,64.63
2022-10-22T11:44:32.520Z,64.84
2022-10-22T11:47:09.525Z,66.05
2022-10-22T11:49:56.160Z,65.68
2022-10-22T11:52:40.571Z,65.55
2022-10-22T11:55:33.872Z,68.32
2022-10-22T11:58:01.750Z,67.13
2022-10-22T12:00:47.018Z,67.41
2022-10-22T12:03:19.319Z,67.38
2022-10-22T12:05:46.319Z,67.37
2022-10-22T12:08:20.269Z,68.66
2022-10-22T12:11:17.414Z,69.17
2022-10-22T12:13:58.719Z,68.71
2022-10-22T12:16:37.897Z,70.04
2022-10-22T12:19:18.865Z,68.73
2022-10-22T12:21:55.458Z,69.83
2022-10-22T12:24:24.076Z,71.60
2022-10-22T12:26:52.633Z,71.01
2022-10-22T12:29:23.068Z,71.06
2022-10-22T12:31:49.505Z,71.76
2022-10-22T12:34:19.086Z,71.26
2022-10-22T12:36:47.518Z,73.99
2022-10-22T12:39:20.138Z,74.03
2022-10-22T12:41:47.214Z,76.23
2022-10-22T12:44:16.824Z,74.58
2022-10-22T12:46:45.079Z,77.16
2022-10-22T12:49:15.925Z,77.75
2022-10-22T12:51:42.444Z,79.05
2022-10-22T12:54:15.407Z,79.19
2022-10-22T12:56:41.986Z,80.06
2022-10-22T12:59:16.221Z,80.32
2022-10-22T13:01:43.561Z,81.38
2022-10-22T13:04:12.545Z,81.50
2022-10-22T13:06:46.945Z,81.66
2022-10-22T13:09:18.067Z,81.76
2022-10-22T13:11:58.219Z,82.35
2022-10-22T13:14:30.485Z,82.63
2022-10-22T13:17:16.977Z,82.71
2022-10-22T13:19:46.549Z,82.56
2022-10-22T13:22:26.392Z,82.44
2022-10-22T13:24:53.396Z,82.37
2022-10-22T13:27:20.098Z,82.97
2022-10-22T13:29:46.592Z,81.90
2022-10-22T13:32:29.664Z,81.75
2022-10-22T13:34:57.934Z,81.01
2022-10-22T13:37:24.811Z,80.59
2022-10-22T13:39:51.078Z,80.57
2022-10-22T13:42:17.363Z,80.91
2022-10-22T13:44:43.980Z,81.12
2022-10-22T13:47:36.632Z,82.09
2022-10-22T13:50:05.233Z,83.16
2022-10-22T13:52:46.679Z,81.96
2022-10-22T13:55:29.126Z,81.91
2022-10-22T13:57:57.541Z,82.54
2022-10-22T14:00:24.455Z,82.75
2022-10-22T14:02:53.747Z,82.77
2022-10-22T14:05:20.510Z,83.54
2022-10-22T14:07:47.259Z,83.14
2022-10-22T14:10:24.415Z,83.17
2022-10-22T14:12:53.457Z,84.10
2022-10-22T14:15:22.555Z,84.59
2022-10-22T14:17:53.516Z,84.12
2022-10-22T14:20:27.652Z,85.01
2022-10-22T14:22:54.452Z,85.28
2022-10-22T14:25:24.283Z,85.34
2022-10-22T14:27:50.700Z,86.23
2022-10-22T14:30:20.048Z,86.17
2022-10-22T14:32:48.746Z,86.42
2022-10-22T14:35:17.699Z,86.50
2022-10-22T14:37:43.929Z,86.32
2022-10-22T14:40:14.167Z,86.61
2022-10-22T14:42:42.960Z,87.48
2022-10-22T14:45:23.874Z,89.40
2022-10-22T14:47:51.623Z,88.91
2022-10-22T14:50:18.751Z,90.40
2022-10-22T14:52:45.417Z,90.05
2022-10-22T14:55:14.046Z,91.03
2022-10-22T14:57:41.392Z,92.07
2022-10-22T15:00:14.052Z,91.61
2022-10-22T15:02:40.852Z,91.44
2022-10-22T15:05:08.570Z,91.67
2022-10-22T15:07:35.310Z,92.62
2022-10-22T15:10:01.916Z,93.23
2022-10-22T15:12:28.166Z,94.77
2022-10-22T15:14:54.401Z,96.33
2022-10-22T15:17:20.914Z,96.04
2022-10-22T15:19:47.213Z,97.08
2022-10-22T15:22:14.159Z,98.43
2022-10-22T15:24:44.594Z,98.40
2022-10-22T15:27:13.756Z,98.50
2022-10-22T15:29:40.965Z,99.57
2022-10-22T15:32:10.380Z,100.00
2022-10-22T15:34:38.080Z,100.00
2022-10-22T15:37:09.595Z,100.00
2022-10-22T15:39:39.737Z,100.00
2022-10-22T15:42:06.191Z,100.00
2022-10-22T15:44:32.728Z,100.00
2022-10-22T15:46:59.580Z,100.00
2022-10-22T15:49:27.276Z,100.00
2022-10-22T15:51:53.918Z,100.00
2022-10-22T15:54:23.261Z,100.00
2022-10-22T15:56:49.496Z,100.00
2022-10-22T15:59:16.506Z,100.00
2022-10-22T16:01:43.504Z,100.00
2022-10-22T16:04:10.414Z,100.00
2022-10-22T16:06:41.141Z,100.00
2022-10-22T16:09:10.531Z,100.00
2022-10-22T16:11:38.516Z,100.00
2022-10-22T16:14:05.034Z,100.00
2022-10-22T16:16:33.157Z,100.00
2022-10-22T16:18:59.772Z,100.00
2022-10-22T16:21:26.403Z,100.00
2022-10-22T16:23:52.923Z,100.00
2022-10-22T16:26:19.835Z,100.00
2022-10-22T16:28:47.131Z,100.00
2022-10-22T16:31:15.083Z,100.00
2022-10-22T16:33:47.730Z,100.00
2022-10-22T16:36:20.361Z,100.00
2022-10-22T16:38:47.865Z,100.00
2022-10-22T16:41:19.235Z,100.00
2022-10-22T16:43:48.414Z,100.00
2022-10-22T16:46:16.379Z,100.00
2022-10-22T16:48:52.855Z,100.00
2022-10-22T16:51:22.266Z,100.00
2022-10-22T16:53:48.597Z,100.00
2022-10-22T16:56:15.870Z,100.00
2022-10-22T16:58:49.917Z,100.00
2022-10-22T17:01:18.083Z,100.00
2022-10-22T17:03:45.430Z,100.00
2022-10-22T17:06:11.968Z,100.00
2022-10-22T17:08:39.321Z,100.00
2022-10-22T17:11:10.287Z,100.00
2022-10-22T17:13:37.154Z,100.00
2022-10-22T17:16:05.526Z,100.00
2022-10-22T17:18:33.078Z,100.00
2022-10-22T17:20:59.367Z,100.00
2022-10-22T17:23:28.464Z,100.00
2022-10-22T17:26:00.043Z,100.00
2022-10-22T17:28:26.868Z,100.00
2022-10-22T17:31:10.933Z,100.00
2022-10-22T17:33:37.475Z,100.00
2022-10-22T17:36:10.767Z,100.00
2022-10-22T17:38:38.773Z,100.00
2022-10-22T17:41:06.930Z,100.00
2022-10-22T17:43:35.814Z,100.00
2022-10-22T17:46:06.973Z,100.00
2022-10-22T17:48:33.923Z,100.00
2022-10-22T17:51:00.337Z,100.00
2022-10-22T17:53:26.850Z,100.00
2022-10-22T17:56:05.124Z,100.00
2022-10-22T17:58:31.370Z,100.00
2022-10-22T18:00:58.482Z,100.00
2022-10-22T18:03:25.320Z,100.00
2022-10-22T18:05:51.579Z,100.00
2022-10-22T18:08:17.868Z,100.00
2022-10-22T18:10:44.403Z,100.00
2022-10-22T18:13:10.704Z,100.00
2022-10-22T18:15:36.982Z,100.00
2022-10-22T18:18:04.348Z,100.00
2022-10-22T18:20:30.831Z,100.00
2022-10-22T18:22:57.075Z,100.00
2022-10-22T18:25:23.641Z,100.00
2022-10-22T18:27:49.904Z,100.00
2022-10-22T18:30:16.229Z,100.00
2022-10-22T18:32:42.751Z,100.00
2022-10-22T18:35:09.095Z,100.00
2022-10-22T18:37:36.434Z,100.00
2022-10-22T18:40:03.647Z,100.00
2022-10-22T18:42:32.846Z,100.00
2022-10-22T18:45:00.820Z,100.00
2022-10-22T18:47:27.298Z,100.00
2022-10-22T18:49:53.520Z,100.00
2022-10-22T18:52:19.776Z,100.00
2022-10-22T18:54:46.314Z,100.00
2022-10-22T18:57:12.577Z,100.00
2022-10-22T18:59:38.847Z,100.00
2022-10-22T19:02:05.465Z,100.00
2022-10-22T19:04:37.089Z,100.00
2022-10-22T19:07:07.270Z,100.00
2022-10-22T19:09:33.810Z,100.00
2022-10-22T19:12:00.454Z,100.00
2022-10-22T19:14:26.899Z,100.00
2022-10-22T19:16:53.628Z,100.00
2022-10-22T19:19:21.459Z,100.00
2022-10-22T19:21:48.064Z,100.00
2022-10-22T19:24:15.771Z,100.00
2022-10-22T19:26:42.349Z,100.00
2022-10-22T19:29:10.890Z,100.00
2022-10-22T19:31:37.816Z,100.00
2022-10-22T19:34:04.303Z,100.00
2022-10-22T19:36:32.440Z,100.00
2022-10-22T19:38:59.473Z,100.00
2022-10-22T19:41:27.959Z,100.00
2022-10-22T19:43:55.347Z,100.00
2022-10-22T19:46:22.928Z,100.00
2022-10-22T19:48:51.223Z,100.00
2022-10-22T19:51:20.124Z,100.00
2022-10-22T19:53:47.394Z,100.00
2022-10-22T19:56:18.122Z,100.00
2022-10-22T19:58:45.105Z,100.00
2022-10-22T20:01:15.248Z,100.00
2022-10-22T20:03:41.899Z,100.00
2022-10-22T20:06:10.009Z,100.00
2022-10-22T20:08:38.003Z,100.00
2022-10-22T20:11:06.868Z,100.00
2022-10-22T20:13:34.067Z,100.00
2022-10-22T20:16:00.562Z,100.00
2022-10-22T20:18:27.126Z,100.00
2022-10-22T20:20:53.393Z,100.00
2022-10-22T20:23:19.608Z,100.00
2022-10-22T20:25:48.199Z,100.00
2022-10-22T20:28:14.726Z,100.00
2022-10-22T20:30:42.631Z,100.00
2022-10-22T20:33:12.843Z,100.00
2022-10-22T20:35:39.285Z,100.00
2022-10-22T20:38:07.032Z,100.00
2022-10-22T20:40:34.160Z,100.00
2022-10-22T20:43:01.335Z,100.00
2022-10-22T20:45:27.843Z,100.00
2022-10-22T20:48:02.046Z,100.00
2022-10-22T20:50:31.304Z,100.00
2022-10-22T20:52:58.169Z,100.00
2022-10-22T20:55:24.578Z,100.00
2022-10-22T20:57:50.810Z,100.00
2022-10-22T21:00:17.434Z,100.00
2022-10-22T21:02:43.827Z,100.00
2022-10-22T21:05:10.073Z,100.00
2022-10-22T21:07:36.593Z,100.00
2022-10-22T21:10:03.732Z,100.00
2022-10-22T21:12:29.964Z,100.00
2022-10-22T21:14:56.518Z,100.00
2022-10-22T21:17:22.739Z,100.00
2022-10-22T21:19:48.968Z,100.00
2022-10-22T21:22:15.491Z,100.00
2022-10-22T21:24:42.237Z,100.00
2022-10-22T21:27:08.525Z,100.00
2022-10-22T21:29:35.041Z,100.00
2022-10-22T21:32:01.276Z,100.00
2022-10-22T21:34:27.552Z,100.00
2022-10-22T21:36:54.076Z,100.00
2022-10-22T21:39:20.338Z,100.00
2022-10-22T21:41:46.567Z,100.00
2022-10-22T21:44:13.103Z,100.00
2022-10-22T21:46:39.359Z,100.00
2022-10-22T21:49:05.639Z,100.00
2022-10-22T21:51:33.948Z,100.00
2022-10-22T21:54:00.388Z,100.00
2022-10-22T21:56:29.121Z,100.00
2022-10-22T21:58:55.965Z,100.00
2022-10-22T22:01:23.053Z,100.00
2022-10-22T22:03:50.224Z,100.00
2022-10-22T22:06:21.238Z,100.00
2022-10-22T22:08:48.347Z,100.00
2022-10-22T22:11:16.804Z,100.00
2022-10-22T22:13:43.205Z,100.00
2022-10-22T22:16:12.336Z,100.00
2022-10-22T22:18:39.569Z,100.00
2022-10-22T22:21:11.088Z,100.00
2022-10-22T22:23:38.850Z,100.00
2022-10-22T22:26:06.000Z,100.00
2022-10-22T22:28:33.267Z,100.00
2022-10-22T22:31:00.238Z,100.00
2022-10-22T22:33:27.244Z,100.00
2022-10-22T22:35:53.582Z,100.00
2022-10-22T22:38:19.803Z,100.00
2022-10-22T22:40:46.320Z,100.00
2022-10-22T22:43:12.538Z,100.00
2022-10-22T22:45:40.729Z,100.00
2022-10-22T22:48:07.696Z,100.00
2022-10-22T22:50:33.925Z,100.00
2022-10-22T22:53:00.174Z,100.00
2022-10-22T22:55:26.751Z,100.00
2022-10-22T22:57:52.978Z,100.00
2022-10-22T23:00:21.557Z,100.00
2022-10-22T23:02:48.060Z,100.00
2022-10-22T23:05:14.376Z,100.00
2022-10-22T23:07:40.595Z,100.00
2022-10-22T23:10:07.373Z,100.00
2022-10-22T23:12:33.619Z,100.00
2022-10-22T23:15:02.073Z,100.00
2022-10-22T23:17:28.894Z,100.00
2022-10-22T23:19:55.226Z,100.00
2022-10-22T23:22:21.475Z,100.00
2022-10-22T23:24:47.983Z,100.00
2022-10-22T23:27:14.292Z,100.00
2022-10-22T23:29:40.529Z,100.00
2022-10-22T23:32:10.831Z,100.00
2022-10-22T23:34:37.047Z,100.00
2022-10-22T23:37:03.340Z,100.00
2022-10-22T23:39:30.005Z,100.00
2022-10-22T23:41:56.746Z,100.00
2022-10-22T23:44:23.250Z,100.00
2022-10-22T23:46:50.073Z,100.00
2022-10-22T23:49:16.705Z,100.00
2022-10-22T23:51:43.090Z,100.00
2022-10-22T23:54:15.182Z,100.00
2022-10-22T23:56:41.763Z,100.00
2022-10-22T23:59:08.152Z,100.00
